sensor_id;sensor_type;location;lat;lon;timestamp;P1;durP1;ratioP1;P2;durP2;ratioP2
14708;SDS011;7445;50.774;4.944;2023-05-07T06:47:05;1226.43;;;999.90;;
14708;SDS011;7445;50.774;4.944;2023-05-07T06:49:37;1259.13;;;999.90;;
14708;SDS011;7445;50.774;4.944;2023-05-07T06:52:39;1251.00;;;999.90;;
14708;SDS011;7445;50.774;4.944;2023-05-07T06:55:59;1254.60;;;999.90;;
14708;SDS011;7445;50.774;4.944;2023-05-07T06:59:28;1231.67;;;999.90;;
14708;SDS011;7445;50.774;4.944;2023-05-07T07:02:59;1225.07;;;999.90;;
14708;SDS011;7445;50.774;4.944;2023-05-07T07:06:26;1252.77;;;999.90;;
14708;SDS011;7445;50.774;4.944;2023-05-07T07:09:52;1249.03;;;999.90;;
14708;SDS011;7445;50.774;4.944;2023-05-07T07:12:41;1262.07;;;999.90;;
14708;SDS011;7445;50.774;4.944;2023-05-07T07:15:15;1231.10;;;999.90;;
14708;SDS011;7445;50.774;4.944;2023-05-07T07:18:40;1269.73;;;999.90;;
14708;SDS011;7445;50.774;4.944;2023-05-07T07:22:12;1217.00;;;999.90;;
14708;SDS011;7445;50.774;4.944;2023-05-07T07:24:59;1221.70;;;999.90;;
14708;SDS011;7445;50.774;4.944;2023-05-07T07:30:25;1203.60;;;999.90;;
14708;SDS011;7445;50.774;4.944;2023-05-07T07:32:53;1273.87;;;999.90;;
14708;SDS011;7445;50.774;4.944;2023-05-07T07:35:20;1267.77;;;999.90;;
14708;SDS011;7445;50.774;4.944;2023-05-07T07:38:17;1203.57;;;999.90;;
14708;SDS011;7445;50.774;4.944;2023-05-07T07:40:44;1202.00;;;999.90;;
14708;SDS011;7445;50.774;4.944;2023-05-07T07:43:11;1189.57;;;999.90;;
14708;SDS011;7445;50.774;4.944;2023-05-07T07:45:37;1193.00;;;999.90;;
14708;SDS011;7445;50.774;4.944;2023-05-07T07:48:03;1181.10;;;999.90;;
14708;SDS011;7445;50.774;4.944;2023-05-07T07:58:58;1038.30;;;971.30;;
14708;SDS011;7445;50.774;4.944;2023-05-07T08:04:37;995.17;;;933.30;;
14708;SDS011;7445;50.774;4.944;2023-05-07T08:07:03;1052.47;;;984.23;;
14708;SDS011;7445;50.774;4.944;2023-05-07T08:27:39;1109.27;;;999.90;;
14708;SDS011;7445;50.774;4.944;2023-05-07T08:32:57;1284.87;;;999.90;;
14708;SDS011;7445;50.774;4.944;2023-05-07T08:35:24;1180.13;;;999.90;;
14708;SDS011;7445;50.774;4.944;2023-05-07T08:37:50;1148.37;;;999.90;;
14708;SDS011;7445;50.774;4.944;2023-05-07T08:40:16;1321.93;;;999.90;;
14708;SDS011;7445;50.774;4.944;2023-05-07T08:42:42;1207.87;;;999.90;;
14708;SDS011;7445;50.774;4.944;2023-05-07T08:45:14;1152.93;;;999.90;;
14708;SDS011;7445;50.774;4.944;2023-05-07T08:47:46;1097.77;;;999.90;;
14708;SDS011;7445;50.774;4.944;2023-05-07T08:50:18;1999.90;;;999.90;;
14708;SDS011;7445;50.774;4.944;2023-05-07T08:52:45;1281.63;;;999.90;;
14708;SDS011;7445;50.774;4.944;2023-05-07T08:55:11;1191.10;;;999.90;;
14708;SDS011;7445;50.774;4.944;2023-05-07T08:57:38;1153.60;;;999.90;;
14708;SDS011;7445;50.774;4.944;2023-05-07T09:00:04;1197.93;;;999.90;;
14708;SDS011;7445;50.774;4.944;2023-05-07T09:02:32;1196.33;;;999.90;;
14708;SDS011;7445;50.774;4.944;2023-05-07T09:05:00;1208.80;;;999.90;;
14708;SDS011;7445;50.774;4.944;2023-05-07T09:07:27;1219.90;;;999.90;;
14708;SDS011;7445;50.774;4.944;2023-05-07T09:09:53;1210.77;;;999.90;;
14708;SDS011;7445;50.774;4.944;2023-05-07T09:12:25;1271.83;;;999.90;;
14708;SDS011;7445;50.774;4.944;2023-05-07T09:15:17;1193.77;;;999.90;;
14708;SDS011;7445;50.774;4.944;2023-05-07T09:17:43;1224.93;;;999.90;;
14708;SDS011;7445;50.774;4.944;2023-05-07T09:20:09;1211.70;;;999.90;;
14708;SDS011;7445;50.774;4.944;2023-05-07T09:22:48;1248.20;;;999.90;;
14708;SDS011;7445;50.774;4.944;2023-05-07T09:25:22;1301.20;;;999.90;;
14708;SDS011;7445;50.774;4.944;2023-05-07T09:30:51;1317.10;;;999.90;;
14708;SDS011;7445;50.774;4.944;2023-05-07T09:33:20;1324.10;;;999.90;;
14708;SDS011;7445;50.774;4.944;2023-05-07T09:38:20;1344.57;;;999.90;;
14708;SDS011;7445;50.774;4.944;2023-05-07T09:41:11;1348.83;;;999.90;;
14708;SDS011;7445;50.774;4.944;2023-05-07T09:43:41;1369.30;;;999.90;;
14708;SDS011;7445;50.774;4.944;2023-05-07T09:46:13;1396.00;;;999.90;;
14708;SDS011;7445;50.774;4.944;2023-05-07T09:49:09;1369.97;;;999.90;;
14708;SDS011;7445;50.774;4.944;2023-05-07T10:07:59;1392.20;;;999.90;;
14708;SDS011;7445;50.774;4.944;2023-05-07T10:10:32;1402.97;;;999.90;;
14708;SDS011;7445;50.774;4.944;2023-05-07T10:13:11;1404.90;;;999.90;;
14708;SDS011;7445;50.774;4.944;2023-05-07T10:16:04;1395.93;;;999.90;;
14708;SDS011;7445;50.774;4.944;2023-05-07T10:18:37;1411.57;;;999.90;;
14708;SDS011;7445;50.774;4.944;2023-05-07T10:21:17;1408.37;;;999.90;;
14708;SDS011;7445;50.774;4.944;2023-05-07T10:24:12;1368.30;;;999.90;;
14708;SDS011;7445;50.774;4.944;2023-05-07T10:30:05;1404.77;;;999.90;;
14708;SDS011;7445;50.774;4.944;2023-05-07T10:40:28;1422.17;;;999.90;;
14708;SDS011;7445;50.774;4.944;2023-05-07T10:46:11;1394.17;;;999.90;;
14708;SDS011;7445;50.774;4.944;2023-05-07T10:51:31;1385.40;;;999.90;;
14708;SDS011;7445;50.774;4.944;2023-05-07T10:54:19;1398.27;;;999.90;;
14708;SDS011;7445;50.774;4.944;2023-05-07T10:56:44;1384.97;;;999.90;;
14708;SDS011;7445;50.774;4.944;2023-05-07T11:02:00;1413.53;;;999.90;;
14708;SDS011;7445;50.774;4.944;2023-05-07T11:04:34;1431.80;;;999.90;;
14708;SDS011;7445;50.774;4.944;2023-05-07T11:10:11;1432.47;;;999.90;;
14708;SDS011;7445;50.774;4.944;2023-05-07T11:15:34;1428.33;;;999.90;;
14708;SDS011;7445;50.774;4.944;2023-05-07T11:18:03;1428.97;;;999.90;;
14708;SDS011;7445;50.774;4.944;2023-05-07T11:29:27;1397.97;;;999.90;;
14708;SDS011;7445;50.774;4.944;2023-05-07T11:58:23;1444.87;;;999.90;;
14708;SDS011;7445;50.774;4.944;2023-05-07T12:00:53;1454.77;;;999.90;;
14708;SDS011;7445;50.774;4.944;2023-05-07T12:03:19;1456.53;;;999.90;;
14708;SDS011;7445;50.774;4.944;2023-05-07T12:05:49;1480.03;;;999.90;;
14708;SDS011;7445;50.774;4.944;2023-05-07T12:10:50;1466.80;;;999.90;;
14708;SDS011;7445;50.774;4.944;2023-05-07T12:16:15;1442.73;;;999.90;;
14708;SDS011;7445;50.774;4.944;2023-05-07T12:18:45;1455.10;;;999.90;;
14708;SDS011;7445;50.774;4.944;2023-05-07T12:21:12;1453.50;;;999.90;;
14708;SDS011;7445;50.774;4.944;2023-05-07T12:23:38;1454.47;;;999.90;;
14708;SDS011;7445;50.774;4.944;2023-05-07T12:26:04;1469.33;;;999.90;;
14708;SDS011;7445;50.774;4.944;2023-05-07T12:31:42;1447.27;;;999.90;;
14708;SDS011;7445;50.774;4.944;2023-05-07T12:34:50;1453.50;;;999.90;;
14708;SDS011;7445;50.774;4.944;2023-05-07T12:37:22;1475.43;;;999.90;;
14708;SDS011;7445;50.774;4.944;2023-05-07T12:40:06;1459.53;;;999.90;;
14708;SDS011;7445;50.774;4.944;2023-05-07T12:46:03;1431.87;;;999.90;;
14708;SDS011;7445;50.774;4.944;2023-05-07T12:53:43;1448.43;;;999.90;;
14708;SDS011;7445;50.774;4.944;2023-05-07T12:56:12;1452.60;;;999.90;;
14708;SDS011;7445;50.774;4.944;2023-05-07T12:58:43;1435.73;;;999.90;;
14708;SDS011;7445;50.774;4.944;2023-05-07T13:01:09;1466.00;;;999.90;;
14708;SDS011;7445;50.774;4.944;2023-05-07T13:03:49;1460.47;;;999.90;;
14708;SDS011;7445;50.774;4.944;2023-05-07T13:06:21;1477.17;;;999.90;;
14708;SDS011;7445;50.774;4.944;2023-05-07T13:08:54;1486.63;;;999.90;;
14708;SDS011;7445;50.774;4.944;2023-05-07T13:11:21;1452.27;;;999.90;;
14708;SDS011;7445;50.774;4.944;2023-05-07T13:13:51;1421.67;;;999.90;;
14708;SDS011;7445;50.774;4.944;2023-05-07T13:16:26;1411.53;;;999.90;;
14708;SDS011;7445;50.774;4.944;2023-05-07T13:18:52;1435.53;;;999.90;;
14708;SDS011;7445;50.774;4.944;2023-05-07T13:21:21;1431.20;;;999.90;;
14708;SDS011;7445;50.774;4.944;2023-05-07T13:24:08;1426.37;;;999.90;;
14708;SDS011;7445;50.774;4.944;2023-05-07T13:26:34;1445.20;;;999.90;;
14708;SDS011;7445;50.774;4.944;2023-05-07T13:32:31;1441.87;;;999.90;;
14708;SDS011;7445;50.774;4.944;2023-05-07T13:35:04;1443.10;;;999.90;;
14708;SDS011;7445;50.774;4.944;2023-05-07T13:37:36;1418.67;;;999.90;;
14708;SDS011;7445;50.774;4.944;2023-05-07T13:40:16;1460.73;;;999.90;;
14708;SDS011;7445;50.774;4.944;2023-05-07T13:42:57;1469.30;;;999.90;;
14708;SDS011;7445;50.774;4.944;2023-05-07T13:45:24;1412.50;;;999.90;;
14708;SDS011;7445;50.774;4.944;2023-05-07T13:47:51;1380.37;;;999.90;;
14708;SDS011;7445;50.774;4.944;2023-05-07T13:50:17;1452.77;;;999.90;;
14708;SDS011;7445;50.774;4.944;2023-05-07T13:52:44;1416.43;;;999.90;;
14708;SDS011;7445;50.774;4.944;2023-05-07T13:55:17;1454.80;;;999.90;;
14708;SDS011;7445;50.774;4.944;2023-05-07T13:57:43;1447.93;;;999.90;;
14708;SDS011;7445;50.774;4.944;2023-05-07T14:00:10;1415.30;;;999.90;;
14708;SDS011;7445;50.774;4.944;2023-05-07T14:02:36;1437.50;;;999.90;;
14708;SDS011;7445;50.774;4.944;2023-05-07T14:05:05;1377.80;;;999.90;;
14708;SDS011;7445;50.774;4.944;2023-05-07T14:07:34;1391.37;;;999.90;;
14708;SDS011;7445;50.774;4.944;2023-05-07T14:10:20;1334.20;;;999.90;;
14708;SDS011;7445;50.774;4.944;2023-05-07T14:12:46;1386.20;;;999.90;;
14708;SDS011;7445;50.774;4.944;2023-05-07T14:15:12;1359.17;;;999.90;;
14708;SDS011;7445;50.774;4.944;2023-05-07T14:17:38;1449.97;;;999.90;;
14708;SDS011;7445;50.774;4.944;2023-05-07T14:20:04;1402.60;;;999.90;;
14708;SDS011;7445;50.774;4.944;2023-05-07T14:22:36;1373.87;;;999.90;;
14708;SDS011;7445;50.774;4.944;2023-05-07T14:25:03;1424.67;;;999.90;;
14708;SDS011;7445;50.774;4.944;2023-05-07T14:27:30;1463.97;;;999.90;;
14708;SDS011;7445;50.774;4.944;2023-05-07T14:29:55;1436.80;;;999.90;;
14708;SDS011;7445;50.774;4.944;2023-05-07T14:32:28;1448.97;;;999.90;;
14708;SDS011;7445;50.774;4.944;2023-05-07T14:34:59;1462.57;;;999.90;;
14708;SDS011;7445;50.774;4.944;2023-05-07T14:37:25;1482.87;;;999.90;;
14708;SDS011;7445;50.774;4.944;2023-05-07T14:39:52;1504.67;;;999.90;;
14708;SDS011;7445;50.774;4.944;2023-05-07T14:42:23;1538.00;;;999.90;;
14708;SDS011;7445;50.774;4.944;2023-05-07T14:44:49;1497.87;;;999.90;;
14708;SDS011;7445;50.774;4.944;2023-05-07T14:47:16;1425.30;;;999.90;;
14708;SDS011;7445;50.774;4.944;2023-05-07T14:49:48;1413.13;;;999.90;;
14708;SDS011;7445;50.774;4.944;2023-05-07T14:52:15;1457.00;;;999.90;;
14708;SDS011;7445;50.774;4.944;2023-05-07T14:54:42;1458.10;;;999.90;;
14708;SDS011;7445;50.774;4.944;2023-05-07T14:57:08;1424.50;;;999.90;;
14708;SDS011;7445;50.774;4.944;2023-05-07T14:59:35;1430.33;;;999.90;;
14708;SDS011;7445;50.774;4.944;2023-05-07T15:02:02;1470.03;;;999.90;;
14708;SDS011;7445;50.774;4.944;2023-05-07T15:04:29;1487.43;;;999.90;;
14708;SDS011;7445;50.774;4.944;2023-05-07T15:06:55;1543.20;;;999.90;;
14708;SDS011;7445;50.774;4.944;2023-05-07T15:09:21;1452.70;;;999.90;;
14708;SDS011;7445;50.774;4.944;2023-05-07T15:11:48;1392.87;;;999.90;;
14708;SDS011;7445;50.774;4.944;2023-05-07T15:14:14;1402.63;;;999.90;;
14708;SDS011;7445;50.774;4.944;2023-05-07T15:16:41;1459.73;;;999.90;;
14708;SDS011;7445;50.774;4.944;2023-05-07T15:19:08;1431.87;;;999.90;;
14708;SDS011;7445;50.774;4.944;2023-05-07T15:21:35;1456.70;;;999.90;;
14708;SDS011;7445;50.774;4.944;2023-05-07T15:24:01;1476.43;;;999.90;;
14708;SDS011;7445;50.774;4.944;2023-05-07T15:26:27;1433.97;;;999.90;;
14708;SDS011;7445;50.774;4.944;2023-05-07T15:28:54;1379.20;;;999.90;;
14708;SDS011;7445;50.774;4.944;2023-05-07T15:31:23;1391.30;;;999.90;;
14708;SDS011;7445;50.774;4.944;2023-05-07T15:33:49;1415.07;;;999.90;;
14708;SDS011;7445;50.774;4.944;2023-05-07T15:36:19;1459.53;;;999.90;;
14708;SDS011;7445;50.774;4.944;2023-05-07T15:38:46;1484.27;;;999.90;;
14708;SDS011;7445;50.774;4.944;2023-05-07T15:41:12;1507.60;;;999.90;;
14708;SDS011;7445;50.774;4.944;2023-05-07T15:43:54;1437.83;;;999.90;;
14708;SDS011;7445;50.774;4.944;2023-05-07T15:46:20;1472.03;;;999.90;;
14708;SDS011;7445;50.774;4.944;2023-05-07T15:48:49;1390.17;;;999.90;;
14708;SDS011;7445;50.774;4.944;2023-05-07T15:51:15;1432.80;;;999.90;;
14708;SDS011;7445;50.774;4.944;2023-05-07T15:53:42;1475.23;;;999.90;;
14708;SDS011;7445;50.774;4.944;2023-05-07T15:56:09;1427.80;;;999.90;;
14708;SDS011;7445;50.774;4.944;2023-05-07T15:58:35;1395.77;;;999.90;;
14708;SDS011;7445;50.774;4.944;2023-05-07T16:01:01;1413.23;;;999.90;;
14708;SDS011;7445;50.774;4.944;2023-05-07T16:03:28;1429.60;;;999.90;;
14708;SDS011;7445;50.774;4.944;2023-05-07T16:05:55;1410.40;;;999.90;;
14708;SDS011;7445;50.774;4.944;2023-05-07T16:08:27;1492.73;;;999.90;;
14708;SDS011;7445;50.774;4.944;2023-05-07T16:10:53;1425.37;;;999.90;;
14708;SDS011;7445;50.774;4.944;2023-05-07T16:13:19;1452.07;;;999.90;;
14708;SDS011;7445;50.774;4.944;2023-05-07T16:15:45;1429.33;;;999.90;;
14708;SDS011;7445;50.774;4.944;2023-05-07T16:18:11;1476.83;;;999.90;;
14708;SDS011;7445;50.774;4.944;2023-05-07T16:20:42;1433.23;;;999.90;;
14708;SDS011;7445;50.774;4.944;2023-05-07T16:23:08;1442.83;;;999.90;;
14708;SDS011;7445;50.774;4.944;2023-05-07T16:25:36;1394.50;;;999.90;;
14708;SDS011;7445;50.774;4.944;2023-05-07T16:28:09;1407.17;;;999.90;;
14708;SDS011;7445;50.774;4.944;2023-05-07T16:30:43;1391.17;;;999.90;;
14708;SDS011;7445;50.774;4.944;2023-05-07T16:33:19;1393.30;;;999.90;;
14708;SDS011;7445;50.774;4.944;2023-05-07T16:35:55;1415.77;;;999.90;;
14708;SDS011;7445;50.774;4.944;2023-05-07T16:38:32;1416.03;;;999.90;;
14708;SDS011;7445;50.774;4.944;2023-05-07T16:41:08;1449.00;;;999.90;;
14708;SDS011;7445;50.774;4.944;2023-05-07T16:43:47;1452.37;;;999.90;;
14708;SDS011;7445;50.774;4.944;2023-05-07T16:49:32;1408.43;;;999.90;;
14708;SDS011;7445;50.774;4.944;2023-05-07T16:52:12;1401.03;;;999.90;;
14708;SDS011;7445;50.774;4.944;2023-05-07T17:04:43;1433.97;;;999.90;;
14708;SDS011;7445;50.774;4.944;2023-05-07T17:07:08;1429.60;;;999.90;;
14708;SDS011;7445;50.774;4.944;2023-05-07T17:09:36;1474.27;;;999.90;;
14708;SDS011;7445;50.774;4.944;2023-05-07T17:12:02;1466.30;;;999.90;;
14708;SDS011;7445;50.774;4.944;2023-05-07T17:14:28;1497.80;;;999.90;;
14708;SDS011;7445;50.774;4.944;2023-05-07T17:16:54;1488.80;;;999.90;;
14708;SDS011;7445;50.774;4.944;2023-05-07T17:19:21;1543.80;;;999.90;;
14708;SDS011;7445;50.774;4.944;2023-05-07T17:21:47;1475.33;;;999.90;;
14708;SDS011;7445;50.774;4.944;2023-05-07T17:24:12;1473.33;;;999.90;;
14708;SDS011;7445;50.774;4.944;2023-05-07T17:26:38;1525.63;;;999.90;;
14708;SDS011;7445;50.774;4.944;2023-05-07T17:29:06;1479.80;;;999.90;;
14708;SDS011;7445;50.774;4.944;2023-05-07T17:31:33;1524.37;;;999.90;;
14708;SDS011;7445;50.774;4.944;2023-05-07T17:33:59;1488.07;;;999.90;;
14708;SDS011;7445;50.774;4.944;2023-05-07T17:36:25;1466.10;;;999.90;;
14708;SDS011;7445;50.774;4.944;2023-05-07T17:38:51;1477.00;;;999.90;;
14708;SDS011;7445;50.774;4.944;2023-05-07T17:41:17;1484.77;;;999.90;;
14708;SDS011;7445;50.774;4.944;2023-05-07T17:43:42;1481.47;;;999.90;;
14708;SDS011;7445;50.774;4.944;2023-05-07T17:46:08;1471.37;;;999.90;;
14708;SDS011;7445;50.774;4.944;2023-05-07T17:48:34;1458.57;;;999.90;;
14708;SDS011;7445;50.774;4.944;2023-05-07T17:51:03;1461.70;;;999.90;;
14708;SDS011;7445;50.774;4.944;2023-05-07T17:53:46;1436.67;;;999.90;;
14708;SDS011;7445;50.774;4.944;2023-05-07T17:56:12;1448.30;;;999.90;;
14708;SDS011;7445;50.774;4.944;2023-05-07T17:58:37;1472.63;;;999.90;;
14708;SDS011;7445;50.774;4.944;2023-05-07T18:01:03;1448.33;;;999.90;;
14708;SDS011;7445;50.774;4.944;2023-05-07T18:03:28;1447.73;;;999.90;;
14708;SDS011;7445;50.774;4.944;2023-05-07T18:05:55;1443.43;;;999.90;;
14708;SDS011;7445;50.774;4.944;2023-05-07T18:08:21;1434.83;;;999.90;;
14708;SDS011;7445;50.774;4.944;2023-05-07T18:10:46;1444.03;;;999.90;;
14708;SDS011;7445;50.774;4.944;2023-05-07T18:13:12;1402.50;;;999.90;;
14708;SDS011;7445;50.774;4.944;2023-05-07T18:15:37;1416.30;;;999.90;;
14708;SDS011;7445;50.774;4.944;2023-05-07T18:18:03;1408.80;;;999.90;;
14708;SDS011;7445;50.774;4.944;2023-05-07T18:20:29;1414.37;;;999.90;;
14708;SDS011;7445;50.774;4.944;2023-05-07T18:22:55;1391.87;;;999.90;;
14708;SDS011;7445;50.774;4.944;2023-05-07T18:25:22;1399.73;;;999.90;;
14708;SDS011;7445;50.774;4.944;2023-05-07T18:27:48;1371.33;;;999.90;;
14708;SDS011;7445;50.774;4.944;2023-05-07T18:30:13;1390.87;;;999.90;;
14708;SDS011;7445;50.774;4.944;2023-05-07T18:32:39;1344.20;;;999.90;;
14708;SDS011;7445;50.774;4.944;2023-05-07T18:35:05;1352.17;;;999.90;;
14708;SDS011;7445;50.774;4.944;2023-05-07T18:37:31;1347.93;;;999.90;;
14708;SDS011;7445;50.774;4.944;2023-05-07T18:39:57;1387.97;;;999.90;;
14708;SDS011;7445;50.774;4.944;2023-05-07T18:42:25;1393.87;;;999.90;;
14708;SDS011;7445;50.774;4.944;2023-05-07T18:44:53;1366.57;;;999.90;;
14708;SDS011;7445;50.774;4.944;2023-05-07T18:47:20;1333.30;;;999.90;;
14708;SDS011;7445;50.774;4.944;2023-05-07T18:49:45;1319.57;;;999.90;;
14708;SDS011;7445;50.774;4.944;2023-05-07T18:52:11;1304.20;;;999.90;;
14708;SDS011;7445;50.774;4.944;2023-05-07T18:54:36;1257.60;;;999.90;;
14708;SDS011;7445;50.774;4.944;2023-05-07T18:57:02;1290.00;;;999.90;;
14708;SDS011;7445;50.774;4.944;2023-05-07T18:59:28;1273.10;;;999.90;;
14708;SDS011;7445;50.774;4.944;2023-05-07T19:01:53;1310.27;;;999.90;;
14708;SDS011;7445;50.774;4.944;2023-05-07T19:04:19;1310.10;;;999.90;;
14708;SDS011;7445;50.774;4.944;2023-05-07T19:06:45;1276.80;;;999.90;;
14708;SDS011;7445;50.774;4.944;2023-05-07T19:09:11;1281.83;;;999.90;;
14708;SDS011;7445;50.774;4.944;2023-05-07T19:11:37;1259.10;;;999.90;;
14708;SDS011;7445;50.774;4.944;2023-05-07T19:14:03;1263.07;;;999.90;;
14708;SDS011;7445;50.774;4.944;2023-05-07T19:16:29;1252.97;;;999.90;;
14708;SDS011;7445;50.774;4.944;2023-05-07T19:18:56;1207.63;;;999.90;;
14708;SDS011;7445;50.774;4.944;2023-05-07T19:21:24;1194.63;;;999.90;;
14708;SDS011;7445;50.774;4.944;2023-05-07T19:23:53;1161.33;;;999.90;;
14708;SDS011;7445;50.774;4.944;2023-05-07T19:29:12;1091.90;;;998.43;;
14708;SDS011;7445;50.774;4.944;2023-05-07T19:31:40;1060.37;;;980.43;;
14708;SDS011;7445;50.774;4.944;2023-05-07T19:34:07;1091.77;;;997.93;;
14708;SDS011;7445;50.774;4.944;2023-05-07T19:36:43;1132.43;;;999.90;;
14708;SDS011;7445;50.774;4.944;2023-05-07T19:39:26;1098.33;;;999.90;;
14708;SDS011;7445;50.774;4.944;2023-05-07T19:41:56;1079.57;;;994.53;;
14708;SDS011;7445;50.774;4.944;2023-05-07T19:44:24;1075.23;;;993.73;;
14708;SDS011;7445;50.774;4.944;2023-05-07T19:46:54;1058.07;;;980.43;;
14708;SDS011;7445;50.774;4.944;2023-05-07T19:49:24;1013.10;;;939.43;;
14708;SDS011;7445;50.774;4.944;2023-05-07T19:51:57;997.47;;;926.63;;
14708;SDS011;7445;50.774;4.944;2023-05-07T19:54:30;989.70;;;918.47;;
14708;SDS011;7445;50.774;4.944;2023-05-07T19:56:56;965.60;;;893.50;;
14708;SDS011;7445;50.774;4.944;2023-05-07T19:59:31;915.70;;;850.73;;
14708;SDS011;7445;50.774;4.944;2023-05-07T20:01:59;836.10;;;778.97;;
14708;SDS011;7445;50.774;4.944;2023-05-07T20:04:27;853.40;;;794.07;;
14708;SDS011;7445;50.774;4.944;2023-05-07T20:06:57;812.23;;;755.93;;
14708;SDS011;7445;50.774;4.944;2023-05-07T20:09:24;903.87;;;837.83;;
14708;SDS011;7445;50.774;4.944;2023-05-07T20:11:50;892.03;;;828.73;;
14708;SDS011;7445;50.774;4.944;2023-05-07T20:14:16;883.77;;;821.23;;
14708;SDS011;7445;50.774;4.944;2023-05-07T20:16:43;859.90;;;800.07;;
14708;SDS011;7445;50.774;4.944;2023-05-07T20:19:09;838.27;;;779.13;;
14708;SDS011;7445;50.774;4.944;2023-05-07T20:21:35;803.07;;;747.83;;
14708;SDS011;7445;50.774;4.944;2023-05-07T20:24:02;788.20;;;734.40;;
14708;SDS011;7445;50.774;4.944;2023-05-07T20:26:28;791.83;;;737.50;;
14708;SDS011;7445;50.774;4.944;2023-05-07T20:28:56;794.27;;;740.10;;
14708;SDS011;7445;50.774;4.944;2023-05-07T20:31:22;1999.90;;;999.90;;
14708;SDS011;7445;50.774;4.944;2023-05-07T20:33:47;1130.20;;;999.90;;
14708;SDS011;7445;50.774;4.944;2023-05-07T20:36:13;976.67;;;901.17;;
14708;SDS011;7445;50.774;4.944;2023-05-07T20:38:39;886.87;;;825.23;;
14708;SDS011;7445;50.774;4.944;2023-05-07T20:41:08;883.83;;;823.53;;
